sensor_id;sensor_type;location;lat;lon;timestamp;P1;durP1;ratioP1;P2;durP2;ratioP2
13879;SDS011;7010;48.200;16.332;2022-12-07T00:01:33;7.30;;;6.53;;
13879;SDS011;7010;48.200;16.332;2022-12-07T00:04:03;6.50;;;5.85;;
13879;SDS011;7010;48.200;16.332;2022-12-07T00:06:33;9.68;;;6.45;;
13879;SDS011;7010;48.200;16.332;2022-12-07T00:09:05;7.55;;;6.65;;
13879;SDS011;7010;48.200;16.332;2022-12-07T00:11:34;7.10;;;5.82;;
13879;SDS011;7010;48.200;16.332;2022-12-07T00:14:05;8.98;;;6.13;;
13879;SDS011;7010;48.200;16.332;2022-12-07T00:16:35;6.07;;;5.57;;
13879;SDS011;7010;48.200;16.332;2022-12-07T00:19:03;9.73;;;7.78;;
13879;SDS011;7010;48.200;16.332;2022-12-07T00:21:32;10.35;;;7.10;;
13879;SDS011;7010;48.200;16.332;2022-12-07T00:24:02;6.07;;;5.47;;
13879;SDS011;7010;48.200;16.332;2022-12-07T00:26:33;16.20;;;6.68;;
13879;SDS011;7010;48.200;16.332;2022-12-07T00:29:03;8.02;;;7.22;;
13879;SDS011;7010;48.200;16.332;2022-12-07T00:31:34;6.43;;;5.72;;
13879;SDS011;7010;48.200;16.332;2022-12-07T00:34:05;6.88;;;6.18;;
13879;SDS011;7010;48.200;16.332;2022-12-07T00:36:35;9.40;;;6.85;;
13879;SDS011;7010;48.200;16.332;2022-12-07T00:39:03;7.22;;;6.53;;
13879;SDS011;7010;48.200;16.332;2022-12-07T00:41:33;7.32;;;6.03;;
13879;SDS011;7010;48.200;16.332;2022-12-07T00:44:01;8.55;;;6.53;;
13879;SDS011;7010;48.200;16.332;2022-12-07T00:46:30;8.23;;;7.28;;
13879;SDS011;7010;48.200;16.332;2022-12-07T00:48:58;7.05;;;6.35;;
13879;SDS011;7010;48.200;16.332;2022-12-07T00:51:26;8.50;;;6.47;;
13879;SDS011;7010;48.200;16.332;2022-12-07T00:53:55;7.65;;;6.95;;
13879;SDS011;7010;48.200;16.332;2022-12-07T00:56:24;9.20;;;7.80;;
13879;SDS011;7010;48.200;16.332;2022-12-07T00:58:55;7.30;;;6.70;;
13879;SDS011;7010;48.200;16.332;2022-12-07T01:01:26;7.07;;;6.43;;
13879;SDS011;7010;48.200;16.332;2022-12-07T01:03:56;15.95;;;9.10;;
13879;SDS011;7010;48.200;16.332;2022-12-07T01:06:27;8.02;;;7.32;;
13879;SDS011;7010;48.200;16.332;2022-12-07T01:08:56;8.52;;;7.70;;
13879;SDS011;7010;48.200;16.332;2022-12-07T01:11:27;9.13;;;8.30;;
13879;SDS011;7010;48.200;16.332;2022-12-07T01:13:58;8.65;;;7.85;;
13879;SDS011;7010;48.200;16.332;2022-12-07T01:16:28;10.43;;;9.00;;
13879;SDS011;7010;48.200;16.332;2022-12-07T01:18:58;8.40;;;7.60;;
13879;SDS011;7010;48.200;16.332;2022-12-07T01:21:27;8.65;;;7.75;;
13879;SDS011;7010;48.200;16.332;2022-12-07T01:23:59;8.60;;;7.80;;
13879;SDS011;7010;48.200;16.332;2022-12-07T01:26:27;7.97;;;7.25;;
13879;SDS011;7010;48.200;16.332;2022-12-07T01:28:55;11.68;;;9.68;;
13879;SDS011;7010;48.200;16.332;2022-12-07T01:31:27;8.75;;;7.93;;
13879;SDS011;7010;48.200;16.332;2022-12-07T01:33:56;8.52;;;7.82;;
13879;SDS011;7010;48.200;16.332;2022-12-07T01:36:27;10.23;;;8.82;;
13879;SDS011;7010;48.200;16.332;2022-12-07T01:38:58;11.63;;;9.23;;
13879;SDS011;7010;48.200;16.332;2022-12-07T01:41:28;9.50;;;8.55;;
13879;SDS011;7010;48.200;16.332;2022-12-07T01:44:10;13.70;;;10.15;;
13879;SDS011;7010;48.200;16.332;2022-12-07T01:46:44;10.35;;;9.25;;
13879;SDS011;7010;48.200;16.332;2022-12-07T01:49:16;8.82;;;8.00;;
13879;SDS011;7010;48.200;16.332;2022-12-07T01:51:49;10.25;;;9.23;;
13879;SDS011;7010;48.200;16.332;2022-12-07T01:54:21;13.20;;;10.02;;
13879;SDS011;7010;48.200;16.332;2022-12-07T01:56:50;11.18;;;10.07;;
13879;SDS011;7010;48.200;16.332;2022-12-07T01:59:24;10.30;;;8.82;;
13879;SDS011;7010;48.200;16.332;2022-12-07T02:01:54;9.60;;;8.75;;
13879;SDS011;7010;48.200;16.332;2022-12-07T02:04:23;10.32;;;9.30;;
13879;SDS011;7010;48.200;16.332;2022-12-07T02:06:52;9.70;;;8.80;;
13879;SDS011;7010;48.200;16.332;2022-12-07T02:09:22;10.57;;;9.48;;
13879;SDS011;7010;48.200;16.332;2022-12-07T02:11:50;9.43;;;8.52;;
13879;SDS011;7010;48.200;16.332;2022-12-07T02:14:21;11.38;;;9.93;;
13879;SDS011;7010;48.200;16.332;2022-12-07T02:16:57;9.35;;;8.40;;
13879;SDS011;7010;48.200;16.332;2022-12-07T02:22:52;10.18;;;9.07;;
13879;SDS011;7010;48.200;16.332;2022-12-07T02:25:35;9.02;;;8.23;;
13879;SDS011;7010;48.200;16.332;2022-12-07T02:28:22;9.95;;;8.55;;
13879;SDS011;7010;48.200;16.332;2022-12-07T02:30:58;9.20;;;8.30;;
13879;SDS011;7010;48.200;16.332;2022-12-07T02:33:31;9.10;;;8.20;;
13879;SDS011;7010;48.200;16.332;2022-12-07T02:36:04;10.82;;;8.98;;
13879;SDS011;7010;48.200;16.332;2022-12-07T02:38:38;10.45;;;8.75;;
13879;SDS011;7010;48.200;16.332;2022-12-07T02:41:12;9.30;;;8.38;;
13879;SDS011;7010;48.200;16.332;2022-12-07T02:43:46;9.85;;;8.43;;
13879;SDS011;7010;48.200;16.332;2022-12-07T02:46:20;8.80;;;7.90;;
13879;SDS011;7010;48.200;16.332;2022-12-07T02:48:52;11.18;;;9.80;;
13879;SDS011;7010;48.200;16.332;2022-12-07T02:51:22;13.52;;;7.35;;
13879;SDS011;7010;48.200;16.332;2022-12-07T02:53:50;10.95;;;9.02;;
13879;SDS011;7010;48.200;16.332;2022-12-07T02:56:20;10.70;;;7.75;;
13879;SDS011;7010;48.200;16.332;2022-12-07T02:58:59;9.77;;;8.80;;
13879;SDS011;7010;48.200;16.332;2022-12-07T03:01:38;11.88;;;8.88;;
13879;SDS011;7010;48.200;16.332;2022-12-07T03:04:17;8.73;;;7.85;;
13879;SDS011;7010;48.200;16.332;2022-12-07T03:06:53;13.82;;;9.27;;
13879;SDS011;7010;48.200;16.332;2022-12-07T03:09:29;8.95;;;8.05;;
13879;SDS011;7010;48.200;16.332;2022-12-07T03:12:05;11.02;;;8.90;;
13879;SDS011;7010;48.200;16.332;2022-12-07T03:14:38;10.10;;;8.38;;
13879;SDS011;7010;48.200;16.332;2022-12-07T03:17:15;8.20;;;7.40;;
13879;SDS011;7010;48.200;16.332;2022-12-07T03:19:48;6.15;;;5.60;;
13879;SDS011;7010;48.200;16.332;2022-12-07T03:22:19;10.50;;;8.73;;
13879;SDS011;7010;48.200;16.332;2022-12-07T03:24:52;16.05;;;9.82;;
13879;SDS011;7010;48.200;16.332;2022-12-07T03:27:23;10.23;;;8.65;;
13879;SDS011;7010;48.200;16.332;2022-12-07T03:29:56;11.60;;;9.18;;
13879;SDS011;7010;48.200;16.332;2022-12-07T03:32:32;9.02;;;8.00;;
13879;SDS011;7010;48.200;16.332;2022-12-07T03:35:05;8.10;;;7.30;;
13879;SDS011;7010;48.200;16.332;2022-12-07T03:37:39;9.90;;;8.88;;
13879;SDS011;7010;48.200;16.332;2022-12-07T03:40:13;8.30;;;7.50;;
13879;SDS011;7010;48.200;16.332;2022-12-07T03:42:46;9.70;;;8.35;;
13879;SDS011;7010;48.200;16.332;2022-12-07T03:45:15;10.43;;;8.73;;
13879;SDS011;7010;48.200;16.332;2022-12-07T03:47:47;10.00;;;8.82;;
13879;SDS011;7010;48.200;16.332;2022-12-07T03:50:21;8.55;;;7.28;;
13879;SDS011;7010;48.200;16.332;2022-12-07T03:52:55;11.77;;;8.55;;
13879;SDS011;7010;48.200;16.332;2022-12-07T03:55:30;9.43;;;7.55;;
13879;SDS011;7010;48.200;16.332;2022-12-07T03:58:01;8.32;;;7.25;;
13879;SDS011;7010;48.200;16.332;2022-12-07T04:00:33;7.47;;;6.60;;
13879;SDS011;7010;48.200;16.332;2022-12-07T04:03:03;8.13;;;7.32;;
13879;SDS011;7010;48.200;16.332;2022-12-07T04:05:32;10.32;;;7.50;;
13879;SDS011;7010;48.200;16.332;2022-12-07T04:08:00;8.00;;;7.15;;
13879;SDS011;7010;48.200;16.332;2022-12-07T04:10:28;10.45;;;7.50;;
13879;SDS011;7010;48.200;16.332;2022-12-07T04:12:57;7.43;;;6.72;;
13879;SDS011;7010;48.200;16.332;2022-12-07T04:15:25;7.25;;;6.50;;
13879;SDS011;7010;48.200;16.332;2022-12-07T04:17:53;7.72;;;6.95;;
13879;SDS011;7010;48.200;16.332;2022-12-07T04:20:23;9.57;;;8.38;;
13879;SDS011;7010;48.200;16.332;2022-12-07T04:22:52;7.55;;;6.85;;
13879;SDS011;7010;48.200;16.332;2022-12-07T04:25:20;6.90;;;6.20;;
13879;SDS011;7010;48.200;16.332;2022-12-07T04:27:48;7.13;;;6.43;;
13879;SDS011;7010;48.200;16.332;2022-12-07T04:30:17;11.45;;;8.05;;
13879;SDS011;7010;48.200;16.332;2022-12-07T04:32:45;7.95;;;7.15;;
13879;SDS011;7010;48.200;16.332;2022-12-07T04:35:13;7.72;;;7.00;;
13879;SDS011;7010;48.200;16.332;2022-12-07T04:37:43;7.22;;;6.57;;
13879;SDS011;7010;48.200;16.332;2022-12-07T04:40:11;8.98;;;6.82;;
13879;SDS011;7010;48.200;16.332;2022-12-07T04:42:40;7.25;;;6.38;;
13879;SDS011;7010;48.200;16.332;2022-12-07T04:45:09;7.75;;;6.97;;
13879;SDS011;7010;48.200;16.332;2022-12-07T04:47:37;9.23;;;7.05;;
13879;SDS011;7010;48.200;16.332;2022-12-07T04:50:06;7.63;;;6.47;;
13879;SDS011;7010;48.200;16.332;2022-12-07T04:52:35;7.45;;;5.93;;
13879;SDS011;7010;48.200;16.332;2022-12-07T04:55:05;8.07;;;6.60;;
13879;SDS011;7010;48.200;16.332;2022-12-07T04:57:33;8.23;;;7.40;;
13879;SDS011;7010;48.200;16.332;2022-12-07T05:00:02;7.03;;;6.38;;
13879;SDS011;7010;48.200;16.332;2022-12-07T05:02:31;11.63;;;8.00;;
13879;SDS011;7010;48.200;16.332;2022-12-07T05:04:59;6.28;;;5.75;;
13879;SDS011;7010;48.200;16.332;2022-12-07T05:07:28;6.82;;;6.13;;
13879;SDS011;7010;48.200;16.332;2022-12-07T05:09:56;6.93;;;6.22;;
13879;SDS011;7010;48.200;16.332;2022-12-07T05:12:26;8.27;;;6.68;;
13879;SDS011;7010;48.200;16.332;2022-12-07T05:14:54;6.57;;;5.97;;
13879;SDS011;7010;48.200;16.332;2022-12-07T05:17:23;6.60;;;6.00;;
13879;SDS011;7010;48.200;16.332;2022-12-07T05:19:51;7.53;;;6.68;;
13879;SDS011;7010;48.200;16.332;2022-12-07T05:22:19;6.97;;;6.00;;
13879;SDS011;7010;48.200;16.332;2022-12-07T05:24:47;6.97;;;6.25;;
13879;SDS011;7010;48.200;16.332;2022-12-07T05:27:16;6.88;;;5.88;;
13879;SDS011;7010;48.200;16.332;2022-12-07T05:29:45;9.95;;;6.35;;
13879;SDS011;7010;48.200;16.332;2022-12-07T05:32:14;6.47;;;5.88;;
13879;SDS011;7010;48.200;16.332;2022-12-07T05:34:42;5.32;;;4.90;;
13879;SDS011;7010;48.200;16.332;2022-12-07T05:37:11;5.78;;;5.28;;
13879;SDS011;7010;48.200;16.332;2022-12-07T05:39:39;5.78;;;5.28;;
13879;SDS011;7010;48.200;16.332;2022-12-07T05:42:09;5.40;;;4.90;;
13879;SDS011;7010;48.200;16.332;2022-12-07T05:44:41;5.97;;;5.40;;
13879;SDS011;7010;48.200;16.332;2022-12-07T05:47:13;47.42;;;6.60;;
13879;SDS011;7010;48.200;16.332;2022-12-07T05:49:42;9.75;;;5.85;;
13879;SDS011;7010;48.200;16.332;2022-12-07T05:52:10;5.57;;;5.00;;
13879;SDS011;7010;48.200;16.332;2022-12-07T05:54:38;5.93;;;5.13;;
13879;SDS011;7010;48.200;16.332;2022-12-07T05:57:07;5.45;;;4.78;;
13879;SDS011;7010;48.200;16.332;2022-12-07T05:59:35;6.00;;;5.38;;
13879;SDS011;7010;48.200;16.332;2022-12-07T06:02:03;5.65;;;4.72;;
13879;SDS011;7010;48.200;16.332;2022-12-07T06:04:36;5.72;;;5.13;;
13879;SDS011;7010;48.200;16.332;2022-12-07T06:07:06;5.97;;;5.38;;
13879;SDS011;7010;48.200;16.332;2022-12-07T06:09:34;5.13;;;4.65;;
13879;SDS011;7010;48.200;16.332;2022-12-07T06:12:04;5.32;;;4.82;;
13879;SDS011;7010;48.200;16.332;2022-12-07T06:14:50;6.35;;;5.13;;
13879;SDS011;7010;48.200;16.332;2022-12-07T06:17:19;4.32;;;4.03;;
13879;SDS011;7010;48.200;16.332;2022-12-07T06:19:48;5.80;;;5.03;;
13879;SDS011;7010;48.200;16.332;2022-12-07T06:22:17;5.28;;;4.75;;
13879;SDS011;7010;48.200;16.332;2022-12-07T06:24:45;6.47;;;5.18;;
13879;SDS011;7010;48.200;16.332;2022-12-07T06:27:14;5.50;;;5.03;;
13879;SDS011;7010;48.200;16.332;2022-12-07T06:29:42;5.95;;;5.40;;
13879;SDS011;7010;48.200;16.332;2022-12-07T06:32:10;6.22;;;4.95;;
13879;SDS011;7010;48.200;16.332;2022-12-07T06:34:38;7.95;;;5.10;;
13879;SDS011;7010;48.200;16.332;2022-12-07T06:37:11;5.85;;;4.68;;
13879;SDS011;7010;48.200;16.332;2022-12-07T06:39:39;5.00;;;4.53;;
13879;SDS011;7010;48.200;16.332;2022-12-07T06:42:08;5.15;;;4.75;;
13879;SDS011;7010;48.200;16.332;2022-12-07T06:44:36;6.82;;;5.07;;
13879;SDS011;7010;48.200;16.332;2022-12-07T06:47:04;5.10;;;4.55;;
13879;SDS011;7010;48.200;16.332;2022-12-07T06:49:54;6.63;;;4.72;;
13879;SDS011;7010;48.200;16.332;2022-12-07T06:52:24;4.90;;;4.45;;
13879;SDS011;7010;48.200;16.332;2022-12-07T06:54:52;7.68;;;5.43;;
13879;SDS011;7010;48.200;16.332;2022-12-07T06:57:20;5.57;;;4.60;;
13879;SDS011;7010;48.200;16.332;2022-12-07T06:59:50;4.85;;;4.45;;
13879;SDS011;7010;48.200;16.332;2022-12-07T07:02:18;4.78;;;4.28;;
13879;SDS011;7010;48.200;16.332;2022-12-07T07:04:46;4.47;;;4.13;;
13879;SDS011;7010;48.200;16.332;2022-12-07T07:07:15;4.72;;;4.28;;
13879;SDS011;7010;48.200;16.332;2022-12-07T07:09:44;4.70;;;4.30;;
13879;SDS011;7010;48.200;16.332;2022-12-07T07:12:13;5.45;;;4.15;;
13879;SDS011;7010;48.200;16.332;2022-12-07T07:14:41;4.57;;;3.97;;
13879;SDS011;7010;48.200;16.332;2022-12-07T07:17:09;5.32;;;4.82;;
13879;SDS011;7010;48.200;16.332;2022-12-07T07:19:37;4.05;;;3.75;;
13879;SDS011;7010;48.200;16.332;2022-12-07T07:22:07;7.47;;;4.70;;
13879;SDS011;7010;48.200;16.332;2022-12-07T07:24:35;4.38;;;3.97;;
13879;SDS011;7010;48.200;16.332;2022-12-07T07:27:05;9.60;;;5.32;;
13879;SDS011;7010;48.200;16.332;2022-12-07T07:29:34;4.55;;;4.15;;
13879;SDS011;7010;48.200;16.332;2022-12-07T07:32:02;5.20;;;4.63;;
13879;SDS011;7010;48.200;16.332;2022-12-07T07:34:32;5.68;;;5.03;;
13879;SDS011;7010;48.200;16.332;2022-12-07T07:37:00;4.40;;;4.00;;
13879;SDS011;7010;48.200;16.332;2022-12-07T07:39:28;5.20;;;4.50;;
13879;SDS011;7010;48.200;16.332;2022-12-07T07:41:57;6.63;;;4.97;;
13879;SDS011;7010;48.200;16.332;2022-12-07T07:44:26;3.80;;;3.47;;
13879;SDS011;7010;48.200;16.332;2022-12-07T07:47:00;4.50;;;4.10;;
13879;SDS011;7010;48.200;16.332;2022-12-07T07:49:28;4.10;;;3.78;;
13879;SDS011;7010;48.200;16.332;2022-12-07T07:51:56;5.65;;;4.43;;
13879;SDS011;7010;48.200;16.332;2022-12-07T07:54:25;4.18;;;3.78;;
13879;SDS011;7010;48.200;16.332;2022-12-07T07:56:53;5.10;;;4.47;;
13879;SDS011;7010;48.200;16.332;2022-12-07T07:59:21;6.63;;;4.47;;
13879;SDS011;7010;48.200;16.332;2022-12-07T08:01:52;4.78;;;4.30;;
13879;SDS011;7010;48.200;16.332;2022-12-07T08:04:21;4.88;;;4.47;;
13879;SDS011;7010;48.200;16.332;2022-12-07T08:06:49;5.35;;;4.85;;
13879;SDS011;7010;48.200;16.332;2022-12-07T08:09:18;4.72;;;4.22;;
13879;SDS011;7010;48.200;16.332;2022-12-07T08:11:46;6.57;;;5.25;;
13879;SDS011;7010;48.200;16.332;2022-12-07T08:14:14;4.00;;;3.67;;
13879;SDS011;7010;48.200;16.332;2022-12-07T08:16:43;4.57;;;4.18;;
13879;SDS011;7010;48.200;16.332;2022-12-07T08:19:12;4.55;;;4.15;;
13879;SDS011;7010;48.200;16.332;2022-12-07T08:21:41;4.75;;;4.35;;
13879;SDS011;7010;48.200;16.332;2022-12-07T08:24:09;4.72;;;4.32;;
13879;SDS011;7010;48.200;16.332;2022-12-07T08:26:37;4.05;;;3.70;;
13879;SDS011;7010;48.200;16.332;2022-12-07T08:29:06;5.10;;;4.60;;
13879;SDS011;7010;48.200;16.332;2022-12-07T08:31:34;4.82;;;4.18;;
13879;SDS011;7010;48.200;16.332;2022-12-07T08:34:03;4.15;;;3.75;;
13879;SDS011;7010;48.200;16.332;2022-12-07T08:36:33;3.25;;;3.05;;
13879;SDS011;7010;48.200;16.332;2022-12-07T08:39:01;8.55;;;5.03;;
13879;SDS011;7010;48.200;16.332;2022-12-07T08:41:49;5.47;;;4.68;;
13879;SDS011;7010;48.200;16.332;2022-12-07T08:44:18;3.92;;;3.55;;
13879;SDS011;7010;48.200;16.332;2022-12-07T08:46:47;4.22;;;3.92;;
13879;SDS011;7010;48.200;16.332;2022-12-07T08:49:20;3.50;;;3.20;;
13879;SDS011;7010;48.200;16.332;2022-12-07T08:51:53;3.58;;;3.25;;
13879;SDS011;7010;48.200;16.332;2022-12-07T08:54:22;4.35;;;3.97;;
13879;SDS011;7010;48.200;16.332;2022-12-07T08:56:51;3.75;;;3.45;;
13879;SDS011;7010;48.200;16.332;2022-12-07T08:59:25;4.00;;;3.63;;
13879;SDS011;7010;48.200;16.332;2022-12-07T09:01:55;4.65;;;4.15;;
13879;SDS011;7010;48.200;16.332;2022-12-07T09:04:23;5.97;;;4.25;;
13879;SDS011;7010;48.200;16.332;2022-12-07T09:06:54;6.13;;;4.45;;
13879;SDS011;7010;48.200;16.332;2022-12-07T09:09:23;4.47;;;3.40;;
13879;SDS011;7010;48.200;16.332;2022-12-07T09:11:51;5.65;;;3.92;;
13879;SDS011;7010;48.200;16.332;2022-12-07T09:14:19;4.20;;;3.80;;
13879;SDS011;7010;48.200;16.332;2022-12-07T09:16:48;4.70;;;4.30;;
13879;SDS011;7010;48.200;16.332;2022-12-07T09:19:16;4.72;;;3.63;;
13879;SDS011;7010;48.200;16.332;2022-12-07T09:21:44;5.28;;;3.92;;
13879;SDS011;7010;48.200;16.332;2022-12-07T09:24:14;5.13;;;4.63;;
13879;SDS011;7010;48.200;16.332;2022-12-07T09:26:43;4.65;;;4.25;;
13879;SDS011;7010;48.200;16.332;2022-12-07T09:29:11;6.25;;;5.45;;
13879;SDS011;7010;48.200;16.332;2022-12-07T09:31:40;4.63;;;4.22;;
13879;SDS011;7010;48.200;16.332;2022-12-07T09:34:08;3.83;;;3.53;;
13879;SDS011;7010;48.200;16.332;2022-12-07T09:36:37;5.93;;;3.55;;
13879;SDS011;7010;48.200;16.332;2022-12-07T09:39:05;4.68;;;4.28;;
13879;SDS011;7010;48.200;16.332;2022-12-07T09:41:36;7.50;;;4.85;;
13879;SDS011;7010;48.200;16.332;2022-12-07T09:44:06;4.03;;;3.72;;
13879;SDS011;7010;48.200;16.332;2022-12-07T09:46:39;7.35;;;5.22;;
13879;SDS011;7010;48.200;16.332;2022-12-07T09:49:10;3.88;;;3.58;;
13879;SDS011;7010;48.200;16.332;2022-12-07T09:51:40;4.70;;;4.30;;
13879;SDS011;7010;48.200;16.332;2022-12-07T09:54:09;7.22;;;4.78;;
13879;SDS011;7010;48.200;16.332;2022-12-07T09:56:42;4.55;;;4.22;;
13879;SDS011;7010;48.200;16.332;2022-12-07T09:59:12;5.22;;;4.78;;
13879;SDS011;7010;48.200;16.332;2022-12-07T10:01:44;5.45;;;4.80;;
13879;SDS011;7010;48.200;16.332;2022-12-07T10:04:15;4.82;;;4.53;;
13879;SDS011;7010;48.200;16.332;2022-12-07T10:06:45;4.88;;;4.47;;
13879;SDS011;7010;48.200;16.332;2022-12-07T10:09:15;9.95;;;6.25;;
13879;SDS011;7010;48.200;16.332;2022-12-07T10:11:59;5.28;;;4.78;;
13879;SDS011;7010;48.200;16.332;2022-12-07T10:14:28;4.70;;;4.22;;
13879;SDS011;7010;48.200;16.332;2022-12-07T10:17:37;4.10;;;3.83;;
13879;SDS011;7010;48.200;16.332;2022-12-07T10:20:10;4.82;;;4.32;;
13879;SDS011;7010;48.200;16.332;2022-12-07T10:22:53;5.43;;;4.93;;
13879;SDS011;7010;48.200;16.332;2022-12-07T10:25:25;5.00;;;4.43;;
13879;SDS011;7010;48.200;16.332;2022-12-07T10:28:08;4.18;;;3.78;;
13879;SDS011;7010;48.200;16.332;2022-12-07T10:30:51;5.07;;;3.63;;
13879;SDS011;7010;48.200;16.332;2022-12-07T10:33:29;3.85;;;3.55;;
13879;SDS011;7010;48.200;16.332;2022-12-07T10:36:00;4.63;;;3.85;;
13879;SDS011;7010;48.200;16.332;2022-12-07T10:38:44;3.42;;;3.13;;
13879;SDS011;7010;48.200;16.332;2022-12-07T10:41:14;6.40;;;4.20;;
13879;SDS011;7010;48.200;16.332;2022-12-07T10:43:51;3.45;;;3.17;;
13879;SDS011;7010;48.200;16.332;2022-12-07T10:49:36;3.80;;;3.50;;
13879;SDS011;7010;48.200;16.332;2022-12-07T10:52:24;4.35;;;4.00;;
13879;SDS011;7010;48.200;16.332;2022-12-07T10:55:14;4.55;;;4.18;;
13879;SDS011;7010;48.200;16.332;2022-12-07T10:57:53;6.65;;;4.18;;
13879;SDS011;7010;48.200;16.332;2022-12-07T11:00:34;6.35;;;4.57;;
13879;SDS011;7010;48.200;16.332;2022-12-07T11:03:17;5.05;;;4.43;;
13879;SDS011;7010;48.200;16.332;2022-12-07T11:06:10;11.80;;;5.85;;
13879;SDS011;7010;48.200;16.332;2022-12-07T11:08:51;5.32;;;4.28;;
13879;SDS011;7010;48.200;16.332;2022-12-07T11:11:41;4.05;;;3.67;;
13879;SDS011;7010;48.200;16.332;2022-12-07T11:14:15;4.85;;;4.45;;
13879;SDS011;7010;48.200;16.332;2022-12-07T11:16:55;2.67;;;2.47;;
13879;SDS011;7010;48.200;16.332;2022-12-07T11:19:29;4.05;;;3.70;;
13879;SDS011;7010;48.200;16.332;2022-12-07T11:22:09;4.10;;;3.70;;
13879;SDS011;7010;48.200;16.332;2022-12-07T11:24:46;4.43;;;4.03;;
13879;SDS011;7010;48.200;16.332;2022-12-07T11:27:23;5.68;;;5.10;;
13879;SDS011;7010;48.200;16.332;2022-12-07T11:30:00;5.50;;;5.00;;
13879;SDS011;7010;48.200;16.332;2022-12-07T11:32:42;4.00;;;3.00;;
13879;SDS011;7010;48.200;16.332;2022-12-07T11:35:19;4.05;;;3.65;;
13879;SDS011;7010;48.200;16.332;2022-12-07T11:37:54;4.20;;;3.72;;
13879;SDS011;7010;48.200;16.332;2022-12-07T11:40:26;4.13;;;3.55;;
13879;SDS011;7010;48.200;16.332;2022-12-07T11:42:58;2.78;;;2.58;;
13879;SDS011;7010;48.200;16.332;2022-12-07T11:45:30;3.58;;;3.28;;
13879;SDS011;7010;48.200;16.332;2022-12-07T11:48:02;2.78;;;2.58;;
13879;SDS011;7010;48.200;16.332;2022-12-07T11:50:38;4.00;;;3.63;;
13879;SDS011;7010;48.200;16.332;2022-12-07T11:53:10;5.28;;;3.92;;
13879;SDS011;7010;48.200;16.332;2022-12-07T11:55:47;3.40;;;3.10;;
13879;SDS011;7010;48.200;16.332;2022-12-07T11:58:35;4.35;;;4.05;;
13879;SDS011;7010;48.200;16.332;2022-12-07T12:01:11;5.55;;;4.38;;
13879;SDS011;7010;48.200;16.332;2022-12-07T12:03:49;4.57;;;4.15;;
13879;SDS011;7010;48.200;16.332;2022-12-07T12:06:20;5.40;;;4.88;;
13879;SDS011;7010;48.200;16.332;2022-12-07T12:08:50;4.38;;;3.88;;
13879;SDS011;7010;48.200;16.332;2022-12-07T12:11:47;3.85;;;3.53;;
13879;SDS011;7010;48.200;16.332;2022-12-07T12:15:01;5.00;;;4.05;;
13879;SDS011;7010;48.200;16.332;2022-12-07T12:20:48;3.85;;;3.55;;
13879;SDS011;7010;48.200;16.332;2022-12-07T12:23:20;14.95;;;8.63;;
13879;SDS011;7010;48.200;16.332;2022-12-07T12:25:51;3.83;;;3.47;;
13879;SDS011;7010;48.200;16.332;2022-12-07T12:28:23;3.58;;;3.15;;
13879;SDS011;7010;48.200;16.332;2022-12-07T12:31:07;6.25;;;5.35;;
13879;SDS011;7010;48.200;16.332;2022-12-07T12:33:42;5.80;;;4.82;;
13879;SDS011;7010;48.200;16.332;2022-12-07T12:36:18;5.18;;;4.68;;
13879;SDS011;7010;48.200;16.332;2022-12-07T12:38:50;6.22;;;5.63;;
13879;SDS011;7010;48.200;16.332;2022-12-07T12:41:52;3.88;;;3.58;;
13879;SDS011;7010;48.200;16.332;2022-12-07T12:44:39;7.22;;;5.82;;
13879;SDS011;7010;48.200;16.332;2022-12-07T12:50:17;6.22;;;5.03;;
13879;SDS011;7010;48.200;16.332;2022-12-07T12:52:53;5.82;;;4.63;;
13879;SDS011;7010;48.200;16.332;2022-12-07T12:58:31;4.70;;;4.22;;
13879;SDS011;7010;48.200;16.332;2022-12-07T13:04:25;7.13;;;5.53;;
13879;SDS011;7010;48.200;16.332;2022-12-07T13:06:58;4.35;;;3.67;;
13879;SDS011;7010;48.200;16.332;2022-12-07T13:09:29;4.88;;;4.13;;
13879;SDS011;7010;48.200;16.332;2022-12-07T13:12:01;16.70;;;8.07;;
13879;SDS011;7010;48.200;16.332;2022-12-07T13:14:51;7.55;;;6.18;;
13879;SDS011;7010;48.200;16.332;2022-12-07T13:20:45;6.72;;;5.22;;
13879;SDS011;7010;48.200;16.332;2022-12-07T13:23:22;3.88;;;3.58;;
13879;SDS011;7010;48.200;16.332;2022-12-07T13:28:46;3.80;;;3.50;;
13879;SDS011;7010;48.200;16.332;2022-12-07T13:31:20;5.60;;;4.90;;
13879;SDS011;7010;48.200;16.332;2022-12-07T13:33:58;7.53;;;5.00;;
13879;SDS011;7010;48.200;16.332;2022-12-07T13:36:29;5.43;;;4.90;;
13879;SDS011;7010;48.200;16.332;2022-12-07T13:39:16;4.93;;;4.38;;
13879;SDS011;7010;48.200;16.332;2022-12-07T13:41:50;5.20;;;4.68;;
13879;SDS011;7010;48.200;16.332;2022-12-07T13:44:20;5.53;;;5.00;;
13879;SDS011;7010;48.200;16.332;2022-12-07T13:46:51;4.50;;;4.05;;
13879;SDS011;7010;48.200;16.332;2022-12-07T13:49:26;4.45;;;4.05;;
13879;SDS011;7010;48.200;16.332;2022-12-07T13:52:06;5.03;;;4.47;;
13879;SDS011;7010;48.200;16.332;2022-12-07T13:54:46;4.57;;;4.15;;
13879;SDS011;7010;48.200;16.332;2022-12-07T13:57:17;4.65;;;4.18;;
13879;SDS011;7010;48.200;16.332;2022-12-07T13:59:46;4.32;;;3.90;;
13879;SDS011;7010;48.200;16.332;2022-12-07T14:02:18;5.88;;;5.07;;
13879;SDS011;7010;48.200;16.332;2022-12-07T14:04:48;4.43;;;4.05;;
13879;SDS011;7010;48.200;16.332;2022-12-07T14:07:19;6.28;;;4.40;;
13879;SDS011;7010;48.200;16.332;2022-12-07T14:09:53;4.82;;;4.38;;
13879;SDS011;7010;48.200;16.332;2022-12-07T14:12:25;4.85;;;4.45;;
13879;SDS011;7010;48.200;16.332;2022-12-07T14:14:54;5.20;;;4.70;;
13879;SDS011;7010;48.200;16.332;2022-12-07T14:17:24;7.07;;;5.15;;
13879;SDS011;7010;48.200;16.332;2022-12-07T14:19:54;5.35;;;4.82;;
13879;SDS011;7010;48.200;16.332;2022-12-07T14:22:27;5.25;;;4.75;;
13879;SDS011;7010;48.200;16.332;2022-12-07T14:24:59;7.45;;;4.40;;
13879;SDS011;7010;48.200;16.332;2022-12-07T14:27:56;5.20;;;4.72;;
13879;SDS011;7010;48.200;16.332;2022-12-07T14:30:27;7.18;;;4.88;;
13879;SDS011;7010;48.200;16.332;2022-12-07T14:32:57;4.30;;;3.97;;
13879;SDS011;7010;48.200;16.332;2022-12-07T14:35:28;5.80;;;5.20;;
13879;SDS011;7010;48.200;16.332;2022-12-07T14:37:57;6.22;;;4.88;;
13879;SDS011;7010;48.200;16.332;2022-12-07T14:40:26;9.00;;;6.30;;
13879;SDS011;7010;48.200;16.332;2022-12-07T14:42:59;4.63;;;4.18;;
13879;SDS011;7010;48.200;16.332;2022-12-07T14:45:30;11.43;;;6.55;;
13879;SDS011;7010;48.200;16.332;2022-12-07T14:47:59;8.68;;;5.07;;
13879;SDS011;7010;48.200;16.332;2022-12-07T14:50:48;9.57;;;7.20;;
13879;SDS011;7010;48.200;16.332;2022-12-07T14:53:39;7.45;;;6.15;;
13879;SDS011;7010;48.200;16.332;2022-12-07T14:56:13;8.35;;;5.97;;
13879;SDS011;7010;48.200;16.332;2022-12-07T14:58:43;8.68;;;6.38;;
13879;SDS011;7010;48.200;16.332;2022-12-07T15:01:14;5.40;;;4.90;;
13879;SDS011;7010;48.200;16.332;2022-12-07T15:03:42;40.95;;;14.20;;
13879;SDS011;7010;48.200;16.332;2022-12-07T15:06:13;25.52;;;12.02;;
13879;SDS011;7010;48.200;16.332;2022-12-07T15:08:43;6.38;;;5.13;;
13879;SDS011;7010;48.200;16.332;2022-12-07T15:11:12;5.10;;;4.60;;
13879;SDS011;7010;48.200;16.332;2022-12-07T15:13:41;5.47;;;4.97;;
13879;SDS011;7010;48.200;16.332;2022-12-07T15:16:37;8.88;;;5.88;;
13879;SDS011;7010;48.200;16.332;2022-12-07T15:19:27;5.30;;;4.80;;
13879;SDS011;7010;48.200;16.332;2022-12-07T15:21:56;5.13;;;4.55;;
13879;SDS011;7010;48.200;16.332;2022-12-07T15:24:26;13.65;;;6.57;;
13879;SDS011;7010;48.200;16.332;2022-12-07T15:26:54;6.65;;;5.95;;
13879;SDS011;7010;48.200;16.332;2022-12-07T15:29:25;7.47;;;6.20;;
13879;SDS011;7010;48.200;16.332;2022-12-07T15:31:53;7.07;;;6.35;;
13879;SDS011;7010;48.200;16.332;2022-12-07T15:34:24;8.73;;;5.85;;
13879;SDS011;7010;48.200;16.332;2022-12-07T15:37:04;7.03;;;6.28;;
13879;SDS011;7010;48.200;16.332;2022-12-07T15:39:33;6.78;;;6.07;;
13879;SDS011;7010;48.200;16.332;2022-12-07T15:42:01;5.90;;;5.35;;